createdAt,value
2018-10-03T00:01:51.974Z,79.18
2018-10-03T00:04:21.863Z,79.20
2018-10-03T00:06:50.992Z,79.19
2018-10-03T00:09:20.134Z,79.35
2018-10-03T00:11:49.153Z,79.37
2018-10-03T00:14:18.249Z,79.48
2018-10-03T00:16:47.405Z,79.53
2018-10-03T00:19:16.522Z,79.77
2018-10-03T00:21:46.085Z,79.92
2018-10-03T00:24:15.296Z,79.88
2018-10-03T00:26:44.377Z,79.88
2018-10-03T00:29:13.372Z,79.83
2018-10-03T00:31:42.435Z,79.93
2018-10-03T00:34:11.447Z,79.98
2018-10-03T00:36:40.529Z,80.17
2018-10-03T00:39:11.231Z,80.03
2018-10-03T00:41:41.397Z,79.76
2018-10-03T00:44:10.617Z,79.89
2018-10-03T00:46:40.715Z,79.94
2018-10-03T00:49:10.242Z,79.93
2018-10-03T00:51:39.909Z,79.86
2018-10-03T00:54:09.049Z,79.96
2018-10-03T00:56:38.094Z,80.03
2018-10-03T00:59:07.308Z,80.04
2018-10-03T01:01:36.329Z,79.91
2018-10-03T01:04:05.423Z,79.95
2018-10-03T01:06:34.592Z,80.00
2018-10-03T01:09:04.307Z,80.07
2018-10-03T01:11:33.453Z,80.15
2018-10-03T01:14:02.601Z,80.30
2018-10-03T01:16:31.826Z,80.26
2018-10-03T01:19:01.434Z,80.19
2018-10-03T01:21:30.643Z,80.17
2018-10-03T01:23:59.799Z,80.15
2018-10-03T01:26:28.878Z,80.26
2018-10-03T01:28:57.994Z,80.05
2018-10-03T01:31:27.085Z,80.14
2018-10-03T01:33:56.137Z,80.23
2018-10-03T01:36:25.999Z,80.28
2018-10-03T01:38:55.048Z,80.18
2018-10-03T01:41:24.111Z,80.24
2018-10-03T01:43:53.280Z,80.04
2018-10-03T01:46:22.352Z,80.26
2018-10-03T01:48:51.428Z,80.26
2018-10-03T01:51:26.984Z,80.20
2018-10-03T01:53:56.016Z,80.19
2018-10-03T01:56:25.135Z,80.13
2018-10-03T01:58:54.232Z,80.01
2018-10-03T02:01:23.380Z,79.83
2018-10-03T02:03:52.525Z,79.83
2018-10-03T02:06:21.705Z,79.97
2018-10-03T02:08:50.689Z,79.68
2018-10-03T02:11:19.709Z,79.62
2018-10-03T02:13:48.757Z,79.64
2018-10-03T02:16:17.838Z,79.66
2018-10-03T02:18:46.890Z,79.64
2018-10-03T02:21:15.919Z,79.60
2018-10-03T02:23:45.007Z,79.58
2018-10-03T02:26:14.033Z,79.46
2018-10-03T02:28:43.173Z,79.56
2018-10-03T02:31:12.288Z,79.22
2018-10-03T02:33:41.333Z,79.35
2018-10-03T02:36:10.353Z,79.30
2018-10-03T02:38:39.357Z,79.23
2018-10-03T02:41:08.411Z,79.17
2018-10-03T02:43:37.456Z,79.15
2018-10-03T02:46:06.604Z,79.05
2018-10-03T02:48:35.661Z,79.02
2018-10-03T02:51:04.731Z,78.95
2018-10-03T02:53:33.853Z,79.00
2018-10-03T02:56:02.957Z,78.65
2018-10-03T02:58:37.904Z,78.93
2018-10-03T03:01:07.043Z,78.92
2018-10-03T03:03:36.152Z,79.19
2018-10-03T03:06:05.205Z,78.93
2018-10-03T03:08:35.143Z,78.96
2018-10-03T03:11:04.147Z,78.94
2018-10-03T03:13:33.284Z,78.94
2018-10-03T03:16:02.493Z,78.98
2018-10-03T03:18:31.532Z,79.11
2018-10-03T03:21:00.521Z,78.91
2018-10-03T03:23:29.543Z,79.03
2018-10-03T03:25:59.713Z,79.05
2018-10-03T03:28:28.740Z,79.21
2018-10-03T03:30:57.785Z,78.99
2018-10-03T03:33:26.901Z,78.93
2018-10-03T03:35:56.020Z,78.98
2018-10-03T03:38:25.116Z,79.05
2018-10-03T03:40:54.217Z,79.11
2018-10-03T03:43:23.409Z,79.10
2018-10-03T03:45:52.411Z,78.99
2018-10-03T03:48:21.518Z,79.08
2018-10-03T03:50:50.650Z,79.15
2018-10-03T03:53:19.742Z,79.07
2018-10-03T03:55:48.883Z,78.77
2018-10-03T03:58:18.056Z,78.76
2018-10-03T04:00:47.386Z,78.66
2018-10-03T04:03:16.383Z,78.65
2018-10-03T04:05:45.375Z,78.62
2018-10-03T04:08:14.371Z,78.60
2018-10-03T04:10:43.530Z,78.65
2018-10-03T04:13:12.585Z,78.39
2018-10-03T04:15:41.564Z,78.58
2018-10-03T04:18:10.615Z,78.88
2018-10-03T04:20:39.642Z,78.72
2018-10-03T04:23:08.981Z,78.64
2018-10-03T04:25:38.003Z,78.72
2018-10-03T04:28:07.194Z,78.97
2018-10-03T04:30:36.263Z,78.81
2018-10-03T04:33:05.395Z,78.58
2018-10-03T04:35:34.556Z,78.70
2018-10-03T04:38:03.657Z,78.70
2018-10-03T04:40:32.752Z,78.41
2018-10-03T04:43:01.844Z,78.97
2018-10-03T04:45:30.900Z,78.75
2018-10-03T04:48:00.060Z,78.79
2018-10-03T04:50:29.268Z,78.74
2018-10-03T04:52:58.282Z,78.62
2018-10-03T04:55:27.325Z,78.93
2018-10-03T04:57:56.368Z,78.67
2018-10-03T05:00:25.356Z,78.64
2018-10-03T05:02:54.433Z,78.57
2018-10-03T05:05:23.531Z,78.32
2018-10-03T05:07:52.591Z,78.50
2018-10-03T05:10:21.637Z,78.65
2018-10-03T05:12:50.657Z,78.47
2018-10-03T05:15:19.728Z,78.64
2018-10-03T05:17:48.828Z,78.69
2018-10-03T05:20:17.970Z,78.69
2018-10-03T05:22:46.974Z,78.64
2018-10-03T05:25:16.005Z,78.70
2018-10-03T05:27:45.133Z,78.56
2018-10-03T05:30:15.024Z,78.68
2018-10-03T05:32:44.212Z,78.72
2018-10-03T05:35:13.241Z,78.73
2018-10-03T05:37:42.266Z,78.73
2018-10-03T05:40:11.520Z,78.75
2018-10-03T05:42:40.505Z,78.80
2018-10-03T05:45:09.598Z,78.67
2018-10-03T05:47:38.718Z,78.69
2018-10-03T05:50:07.841Z,78.58
2018-10-03T05:52:36.937Z,78.58
2018-10-03T05:55:06.384Z,78.53
2018-10-03T05:57:35.707Z,78.47
2018-10-03T06:00:05.184Z,78.42
2018-10-03T06:02:34.460Z,78.49
2018-10-03T06:05:03.560Z,78.49
2018-10-03T06:07:32.786Z,78.44
2018-10-03T06:10:01.884Z,78.50
2018-10-03T06:12:30.990Z,78.60
2018-10-03T06:15:00.067Z,78.51
2018-10-03T06:17:29.117Z,78.47
2018-10-03T06:19:58.177Z,78.53
2018-10-03T06:22:27.201Z,78.40
2018-10-03T06:24:56.320Z,78.36
2018-10-03T06:27:25.550Z,78.22
2018-10-03T06:29:55.175Z,78.25
2018-10-03T06:32:24.210Z,78.38
2018-10-03T06:34:53.973Z,78.13
2018-10-03T06:37:23.359Z,78.32
2018-10-03T06:39:52.946Z,78.39
2018-10-03T06:42:23.792Z,78.17
2018-10-03T06:44:53.271Z,78.31
2018-10-03T06:47:22.628Z,78.42
2018-10-03T06:49:52.000Z,78.35
2018-10-03T06:52:21.442Z,78.45
2018-10-03T06:54:52.099Z,78.46
2018-10-03T06:57:21.536Z,78.35
2018-10-03T06:59:51.039Z,78.40
2018-10-03T07:02:21.014Z,78.19
2018-10-03T07:04:50.551Z,78.14
2018-10-03T07:07:20.115Z,78.02
2018-10-03T07:09:50.745Z,77.81
2018-10-03T07:12:20.284Z,78.04
2018-10-03T07:14:49.893Z,77.86
2018-10-03T07:17:19.040Z,77.93
2018-10-03T07:19:49.230Z,77.98
2018-10-03T07:22:18.417Z,77.93
2018-10-03T07:24:48.339Z,77.92
2018-10-03T07:27:17.680Z,77.88
2018-10-03T07:29:46.768Z,77.96
2018-10-03T07:32:16.123Z,77.84
2018-10-03T07:34:45.294Z,77.89
2018-10-03T07:37:18.607Z,77.82
2018-10-03T07:39:48.545Z,77.69
2018-10-03T07:42:18.624Z,77.64
2018-10-03T07:44:47.824Z,77.70
2018-10-03T07:47:17.910Z,77.66
2018-10-03T07:49:49.266Z,77.63
2018-10-03T07:52:19.548Z,77.55
2018-10-03T07:54:50.487Z,77.49
2018-10-03T07:57:19.728Z,77.45
2018-10-03T07:59:50.032Z,77.35
2018-10-03T08:02:19.194Z,77.37
2018-10-03T08:04:48.613Z,77.50
2018-10-03T08:07:18.587Z,77.42
2018-10-03T08:09:48.054Z,77.41
2018-10-03T08:12:17.492Z,77.39
2018-10-03T08:14:46.898Z,77.36
2018-10-03T08:17:16.375Z,77.32
2018-10-03T08:19:46.001Z,77.18
2018-10-03T08:22:15.121Z,77.14
2018-10-03T08:24:45.916Z,77.17
2018-10-03T08:27:17.659Z,77.09
2018-10-03T08:29:46.713Z,77.04
2018-10-03T08:32:15.884Z,77.02
2018-10-03T08:34:45.053Z,76.92
2018-10-03T08:37:14.191Z,76.89
2018-10-03T08:39:43.244Z,76.99
2018-10-03T08:42:12.481Z,76.94
2018-10-03T08:44:41.880Z,76.95
2018-10-03T08:47:11.150Z,76.82
2018-10-03T08:49:41.081Z,76.70
2018-10-03T08:52:11.324Z,76.83
2018-10-03T08:54:40.766Z,76.88
2018-10-03T08:57:15.587Z,76.75
2018-10-03T08:59:45.719Z,76.72
2018-10-03T09:02:15.182Z,76.62
2018-10-03T09:04:44.671Z,76.54
2018-10-03T09:07:13.817Z,76.62
2018-10-03T09:09:42.911Z,76.74
2018-10-03T09:12:12.100Z,76.66
2018-10-03T09:14:42.062Z,76.51
2018-10-03T09:17:11.197Z,76.38
2018-10-03T09:19:40.423Z,76.42
2018-10-03T09:22:10.031Z,76.41
2018-10-03T09:24:40.377Z,76.16
2018-10-03T09:27:09.982Z,76.22
2018-10-03T09:29:39.203Z,76.02
2018-10-03T09:32:08.594Z,76.05
2018-10-03T09:34:37.801Z,75.95
2018-10-03T09:37:06.941Z,76.20
2018-10-03T09:39:36.885Z,75.96
2018-10-03T09:42:05.904Z,76.00
2018-10-03T09:44:35.201Z,75.98
2018-10-03T09:47:04.226Z,75.98
2018-10-03T09:49:34.832Z,75.74
2018-10-03T09:52:04.322Z,75.73
2018-10-03T09:54:34.797Z,75.36
2018-10-03T09:57:17.164Z,75.14
2018-10-03T09:59:46.271Z,75.13
2018-10-03T10:02:15.465Z,74.94
2018-10-03T10:04:44.484Z,74.99
2018-10-03T10:07:13.592Z,74.84
2018-10-03T10:09:44.726Z,74.81
2018-10-03T10:12:13.876Z,74.67
2018-10-03T10:14:43.821Z,74.65
2018-10-03T10:17:13.887Z,74.46
2018-10-03T10:19:43.057Z,74.61
2018-10-03T10:22:12.446Z,74.45
2018-10-03T10:24:41.483Z,74.49
2018-10-03T10:27:10.712Z,74.21
2018-10-03T10:32:14.561Z,74.32
2018-10-03T10:34:43.841Z,73.91
2018-10-03T10:37:13.322Z,73.80
2018-10-03T10:39:43.793Z,73.68
2018-10-03T10:42:12.821Z,73.49
2018-10-03T10:44:42.055Z,73.17
2018-10-03T10:47:11.198Z,73.13
2018-10-03T10:49:41.424Z,73.05
2018-10-03T10:52:10.545Z,72.97
2018-10-03T10:57:13.839Z,72.58
2018-10-03T10:59:42.913Z,72.38
2018-10-03T11:02:12.391Z,72.26
2018-10-03T11:04:41.737Z,72.00
2018-10-03T11:07:10.846Z,71.84
2018-10-03T11:09:40.109Z,71.89
2018-10-03T11:12:09.492Z,71.76
2018-10-03T11:14:38.699Z,71.65
2018-10-03T11:17:16.189Z,71.37
2018-10-03T11:22:19.325Z,71.25
2018-10-03T11:24:50.451Z,71.19
2018-10-03T11:27:19.760Z,71.21
2018-10-03T11:29:50.111Z,71.17
2018-10-03T11:32:22.811Z,71.10
2018-10-03T11:34:52.407Z,71.04
2018-10-03T11:37:21.570Z,71.04
2018-10-03T11:39:50.732Z,70.91
2018-10-03T11:42:20.229Z,71.00
2018-10-03T11:44:49.275Z,70.98
2018-10-03T11:47:18.363Z,71.05
2018-10-03T11:49:47.595Z,70.98
2018-10-03T11:52:16.753Z,71.07
2018-10-03T11:54:46.759Z,71.02
2018-10-03T11:57:17.023Z,70.94
2018-10-03T11:59:46.121Z,70.89
2018-10-03T12:02:17.122Z,70.88
2018-10-03T12:04:46.354Z,70.82
2018-10-03T12:07:18.256Z,70.72
2018-10-03T12:09:47.542Z,70.50
2018-10-03T12:12:16.849Z,70.21
2018-10-03T12:14:52.810Z,70.03
2018-10-03T12:17:22.157Z,69.79
2018-10-03T12:19:51.362Z,69.49
2018-10-03T12:22:21.536Z,69.38
2018-10-03T12:24:51.211Z,69.37
2018-10-03T12:27:20.488Z,68.92
2018-10-03T12:29:50.085Z,69.02
2018-10-03T12:32:19.370Z,69.10
2018-10-03T12:34:48.928Z,68.94
2018-10-03T12:37:18.083Z,68.73
2018-10-03T12:39:47.145Z,68.87
2018-10-03T12:42:16.300Z,69.17
2018-10-03T12:44:46.464Z,68.99
2018-10-03T12:47:16.751Z,69.05
2018-10-03T12:49:45.808Z,69.02
2018-10-03T12:52:14.917Z,69.22
2018-10-03T12:54:44.342Z,69.17
2018-10-03T12:57:13.305Z,69.00
2018-10-03T12:59:43.304Z,68.96
2018-10-03T13:02:12.435Z,68.88
2018-10-03T13:04:41.616Z,68.87
2018-10-03T13:07:10.771Z,69.05
2018-10-03T13:09:39.836Z,68.83
2018-10-03T13:12:08.918Z,68.65
2018-10-03T13:14:38.309Z,68.70
2018-10-03T13:17:07.513Z,68.62
2018-10-03T13:19:36.945Z,68.65
2018-10-03T13:22:06.232Z,68.66
2018-10-03T13:24:35.412Z,68.57
2018-10-03T13:27:04.520Z,68.52
2018-10-03T13:29:33.659Z,68.55
2018-10-03T13:32:02.759Z,68.58
2018-10-03T13:34:32.128Z,68.92
2018-10-03T13:37:01.252Z,68.59
2018-10-03T13:39:35.136Z,68.53
2018-10-03T13:42:04.328Z,68.71
2018-10-03T13:44:33.536Z,68.48
2018-10-03T13:47:03.763Z,68.84
2018-10-03T13:49:33.070Z,68.89
2018-10-03T13:52:02.863Z,68.84
2018-10-03T13:54:32.676Z,68.69
2018-10-03T13:57:05.994Z,68.40
2018-10-03T13:59:35.357Z,68.64
2018-10-03T14:02:04.654Z,68.54
2018-10-03T14:04:33.950Z,68.77
2018-10-03T14:07:03.584Z,68.86
2018-10-03T14:09:33.174Z,68.84
2018-10-03T14:12:02.556Z,68.84
2018-10-03T14:14:32.267Z,68.79
2018-10-03T14:17:01.438Z,68.76
2018-10-03T14:19:30.469Z,68.57
2018-10-03T14:21:59.620Z,68.72
2018-10-03T14:24:28.877Z,68.60
2018-10-03T14:26:58.110Z,68.77
2018-10-03T14:29:27.957Z,68.39
2018-10-03T14:31:57.947Z,68.38
2018-10-03T14:34:27.033Z,68.28
2018-10-03T14:36:56.617Z,68.50
2018-10-03T14:39:27.206Z,68.49
2018-10-03T14:41:56.449Z,68.55
2018-10-03T14:44:25.543Z,68.50
2018-10-03T14:46:54.963Z,68.91
2018-10-03T14:49:24.002Z,68.81
2018-10-03T14:51:53.138Z,68.85
2018-10-03T14:54:22.419Z,69.03
2018-10-03T14:56:51.862Z,69.10
2018-10-03T14:59:21.474Z,69.02
2018-10-03T15:02:11.583Z,69.07
2018-10-03T15:07:51.374Z,69.29
2018-10-03T15:10:27.732Z,69.29
2018-10-03T15:12:59.663Z,69.45
2018-10-03T15:15:32.941Z,69.43
2018-10-03T15:18:09.475Z,69.65
2018-10-03T15:20:44.437Z,69.76
2018-10-03T15:23:30.472Z,69.89
2018-10-03T15:26:06.961Z,69.98
2018-10-03T15:28:52.853Z,70.25
2018-10-03T15:32:04.823Z,70.20
2018-10-03T15:34:33.996Z,70.69
2018-10-03T15:37:08.171Z,70.59
2018-10-03T15:39:49.915Z,70.64
2018-10-03T15:42:44.559Z,70.66
2018-10-03T15:45:24.287Z,70.75
2018-10-03T15:47:53.596Z,70.90
2018-10-03T15:50:23.185Z,70.65
2018-10-03T15:53:06.910Z,70.87
2018-10-03T15:55:36.091Z,71.03
2018-10-03T15:58:05.454Z,71.38
2018-10-03T16:00:36.439Z,71.41
2018-10-03T16:03:05.628Z,71.33
2018-10-03T16:05:34.807Z,71.51
2018-10-03T16:08:11.829Z,71.48
2018-10-03T16:10:41.366Z,71.61
2018-10-03T16:13:10.743Z,71.69
2018-10-03T16:15:39.762Z,71.77
2018-10-03T16:18:08.897Z,71.70
2018-10-03T16:20:38.589Z,71.62
2018-10-03T16:23:07.813Z,71.68
2018-10-03T16:25:36.953Z,71.99
2018-10-03T16:28:06.785Z,72.06
2018-10-03T16:30:35.857Z,72.08
2018-10-03T16:33:05.318Z,71.91
2018-10-03T16:35:34.495Z,71.97
2018-10-03T16:38:03.521Z,71.97
2018-10-03T16:40:32.607Z,72.03
2018-10-03T16:43:01.637Z,72.19
2018-10-03T16:45:31.230Z,72.25
2018-10-03T16:48:00.655Z,72.57
2018-10-03T16:50:30.605Z,72.65
2018-10-03T16:53:00.745Z,72.62
2018-10-03T16:55:29.956Z,72.88
2018-10-03T16:57:59.035Z,72.89
2018-10-03T17:00:28.061Z,72.80
2018-10-03T17:02:58.161Z,73.15
2018-10-03T17:05:27.272Z,72.94
2018-10-03T17:07:56.466Z,72.93
2018-10-03T17:10:25.658Z,72.96
2018-10-03T17:12:54.853Z,72.84
2018-10-03T17:15:29.121Z,72.87
2018-10-03T17:17:58.314Z,72.83
2018-10-03T17:20:28.001Z,72.76
2018-10-03T17:22:57.066Z,72.78
2018-10-03T17:25:26.059Z,72.93
2018-10-03T17:27:55.131Z,72.79
2018-10-03T17:30:24.894Z,72.76
2018-10-03T17:32:53.927Z,72.97
2018-10-03T17:35:22.952Z,72.95
2018-10-03T17:37:52.720Z,72.91
2018-10-03T17:40:22.776Z,72.91
2018-10-03T17:42:51.916Z,72.99
2018-10-03T17:45:20.970Z,73.11
2018-10-03T17:47:50.013Z,73.17
2018-10-03T17:50:19.170Z,72.93
2018-10-03T17:52:48.324Z,73.03
2018-10-03T17:55:17.384Z,72.99
2018-10-03T17:57:47.160Z,72.98
2018-10-03T18:00:16.263Z,72.96
2018-10-03T18:02:45.371Z,73.15
2018-10-03T18:05:15.269Z,73.30
2018-10-03T18:07:44.326Z,73.54
2018-10-03T18:10:13.479Z,73.50
2018-10-03T18:12:43.276Z,73.53
2018-10-03T18:15:12.389Z,73.40
2018-10-03T18:17:41.666Z,73.74
2018-10-03T18:20:10.766Z,73.82
2018-10-03T18:22:40.012Z,73.87
2018-10-03T18:25:09.174Z,73.70
2018-10-03T18:27:39.029Z,73.57
2018-10-03T18:30:08.273Z,73.45
2018-10-03T18:32:38.198Z,73.54
2018-10-03T18:35:07.561Z,73.66
2018-10-03T18:37:36.785Z,73.73
2018-10-03T18:40:06.840Z,73.69
2018-10-03T18:42:35.976Z,73.81
2018-10-03T18:45:05.150Z,73.88
2018-10-03T18:47:34.232Z,74.00
2018-10-03T18:50:03.401Z,74.03
2018-10-03T18:52:32.521Z,73.94
2018-10-03T18:55:02.272Z,74.15
2018-10-03T18:57:31.428Z,74.13
2018-10-03T19:00:00.560Z,74.12
2018-10-03T19:02:30.155Z,74.38
2018-10-03T19:04:59.297Z,74.22
2018-10-03T19:07:28.333Z,74.17
2018-10-03T19:09:57.339Z,74.12
2018-10-03T19:12:26.517Z,74.18
2018-10-03T19:14:55.544Z,74.28
2018-10-03T19:17:24.597Z,74.31
2018-10-03T19:19:53.666Z,74.30
2018-10-03T19:22:22.653Z,74.55
2018-10-03T19:24:52.674Z,74.69
2018-10-03T19:27:21.679Z,74.73
2018-10-03T19:29:50.723Z,74.61
2018-10-03T19:32:19.828Z,74.56
2018-10-03T19:34:49.025Z,74.39
2018-10-03T19:37:18.831Z,74.56
2018-10-03T19:39:47.880Z,74.47
2018-10-03T19:42:18.591Z,74.35
2018-10-03T19:44:47.771Z,74.31
2018-10-03T19:47:16.784Z,74.31
2018-10-03T19:49:46.168Z,74.21
2018-10-03T19:52:15.298Z,74.13
2018-10-03T19:54:44.356Z,74.02
2018-10-03T19:57:14.227Z,74.09
2018-10-03T19:59:43.960Z,74.06
2018-10-03T20:02:14.445Z,74.05
2018-10-03T20:04:43.605Z,73.92
2018-10-03T20:07:12.799Z,74.06
2018-10-03T20:09:42.099Z,74.24
2018-10-03T20:12:13.396Z,74.12
2018-10-03T20:14:43.492Z,74.20
2018-10-03T20:17:12.816Z,74.20
2018-10-03T20:19:43.375Z,74.25
2018-10-03T20:22:13.249Z,74.24
2018-10-03T20:24:42.428Z,74.32
2018-10-03T20:27:13.053Z,74.31
2018-10-03T20:29:42.178Z,74.47
2018-10-03T20:32:11.575Z,74.55
2018-10-03T20:34:40.918Z,74.63
2018-10-03T20:37:10.377Z,74.71
2018-10-03T20:39:39.688Z,74.71
2018-10-03T20:42:09.826Z,74.67
2018-10-03T20:44:41.472Z,74.82
2018-10-03T20:47:10.584Z,74.74
2018-10-03T20:49:39.728Z,74.64
2018-10-03T20:52:09.149Z,74.45
2018-10-03T20:54:38.449Z,74.58
2018-10-03T20:57:07.509Z,74.67
2018-10-03T20:59:36.554Z,74.74
2018-10-03T21:02:05.605Z,74.92
2018-10-03T21:04:36.050Z,75.16
2018-10-03T21:07:05.193Z,75.31
2018-10-03T21:09:34.292Z,75.22
2018-10-03T21:12:03.441Z,75.43
2018-10-03T21:14:32.573Z,75.42
2018-10-03T21:17:01.628Z,75.44
2018-10-03T21:19:30.622Z,75.38
2018-10-03T21:21:59.695Z,75.48
2018-10-03T21:24:28.788Z,75.41
2018-10-03T21:26:57.880Z,75.54
2018-10-03T21:29:28.651Z,75.71
2018-10-03T21:31:58.024Z,75.60
2018-10-03T21:34:27.037Z,75.76
2018-10-03T21:36:56.441Z,75.71
2018-10-03T21:39:25.602Z,75.84
2018-10-03T21:47:59.907Z,75.87
2018-10-03T21:50:28.953Z,75.88
2018-10-03T21:52:58.661Z,75.86
2018-10-03T21:55:27.770Z,76.00
2018-10-03T21:57:56.911Z,75.92
2018-10-03T22:00:31.327Z,76.10
2018-10-03T22:03:00.658Z,76.43
2018-10-03T22:05:29.691Z,76.49
2018-10-03T22:07:58.710Z,76.40
2018-10-03T22:10:27.793Z,76.41
2018-10-03T22:12:56.828Z,76.39
2018-10-03T22:15:26.482Z,76.20
2018-10-03T22:17:55.494Z,76.34
2018-10-03T22:20:38.872Z,76.39
2018-10-03T22:23:26.156Z,76.25
2018-10-03T22:26:12.875Z,76.37
2018-10-03T22:31:58.476Z,76.21
2018-10-03T22:34:45.814Z,75.97
2018-10-03T22:37:40.430Z,76.08
2018-10-03T22:40:22.353Z,76.14
2018-10-03T22:43:08.473Z,76.09
2018-10-03T22:45:53.431Z,76.11
2018-10-03T22:48:37.828Z,75.87
2018-10-03T22:51:22.422Z,75.99
2018-10-03T22:53:55.068Z,76.21
2018-10-03T22:56:34.888Z,76.32
2018-10-03T22:59:20.174Z,76.47
2018-10-03T23:02:01.564Z,76.46
2018-10-03T23:04:45.341Z,76.70
2018-10-03T23:07:26.971Z,76.67
2018-10-03T23:09:58.894Z,76.87
2018-10-03T23:12:42.186Z,76.84
2018-10-03T23:15:15.000Z,76.75
2018-10-03T23:18:07.190Z,76.82
2018-10-03T23:20:40.236Z,76.86
2018-10-03T23:23:10.169Z,76.78
2018-10-03T23:25:42.613Z,76.84
2018-10-03T23:28:15.906Z,76.72
2018-10-03T23:30:50.597Z,76.75
2018-10-03T23:33:23.104Z,76.79
2018-10-03T23:35:52.142Z,76.90
2018-10-03T23:38:21.159Z,77.01
2018-10-03T23:40:50.249Z,77.17
2018-10-03T23:43:19.276Z,77.21
2018-10-03T23:45:48.433Z,77.13
2018-10-03T23:48:17.727Z,77.28
2018-10-03T23:50:46.738Z,77.24
2018-10-03T23:53:15.830Z,77.39
2018-10-03T23:55:44.861Z,77.39
2018-10-03T23:58:13.893Z,77.57
